You are listening to:
KRFD Del/Gnd/Twr/App - Rockford, Illinois, United States

KRFD 221854Z 23005KT 10SM OVC065 28/23 A2986 RMK AO2 RAE08B40E47 SLP104 P0001 T02780228 $

If stream doesn't start automatically press the play button
If stream stops then reload player then press play